sensor_id;sensor_type;location;lat;lon;timestamp;pressure;altitude;pressure_sealevel;temperature;humidity
75794;BME280;64418;47.536;19.074;2023-05-14T00:01:33;100840.75;;;11.19;86.66
75794;BME280;64418;47.536;19.074;2023-05-14T00:04:19;100825.28;;;11.13;86.69
75794;BME280;64418;47.536;19.074;2023-05-14T00:07:05;100835.31;;;11.19;86.44
75794;BME280;64418;47.536;19.074;2023-05-14T00:09:51;100833.63;;;11.18;86.65
75794;BME280;64418;47.536;19.074;2023-05-14T00:12:37;100824.22;;;11.14;86.75
75794;BME280;64418;47.536;19.074;2023-05-14T00:15:22;100819.44;;;11.16;86.70
75794;BME280;64418;47.536;19.074;2023-05-14T00:18:10;100820.31;;;11.23;86.23
75794;BME280;64418;47.536;19.074;2023-05-14T00:20:55;100812.84;;;11.25;86.18
75794;BME280;64418;47.536;19.074;2023-05-14T00:23:41;100812.38;;;11.22;86.48
75794;BME280;64418;47.536;19.074;2023-05-14T00:26:27;100807.34;;;11.19;87.02
75794;BME280;64418;47.536;19.074;2023-05-14T00:29:12;100805.06;;;11.16;87.26
75794;BME280;64418;47.536;19.074;2023-05-14T00:31:58;100806.13;;;11.21;87.41
75794;BME280;64418;47.536;19.074;2023-05-14T00:34:45;100807.78;;;11.22;87.04
75794;BME280;64418;47.536;19.074;2023-05-14T00:37:31;100810.28;;;11.17;87.25
75794;BME280;64418;47.536;19.074;2023-05-14T00:40:17;100801.91;;;11.12;87.16
75794;BME280;64418;47.536;19.074;2023-05-14T00:43:03;100801.50;;;11.15;86.88
75794;BME280;64418;47.536;19.074;2023-05-14T00:45:50;100807.75;;;11.16;86.97
75794;BME280;64418;47.536;19.074;2023-05-14T00:48:36;100811.72;;;11.13;87.20
75794;BME280;64418;47.536;19.074;2023-05-14T00:51:23;100806.28;;;11.13;86.89
75794;BME280;64418;47.536;19.074;2023-05-14T00:54:10;100809.00;;;11.13;86.67
75794;BME280;64418;47.536;19.074;2023-05-14T00:56:56;100795.44;;;11.13;86.53
75794;BME280;64418;47.536;19.074;2023-05-14T00:59:42;100802.75;;;11.12;86.60
75794;BME280;64418;47.536;19.074;2023-05-14T01:02:28;100796.06;;;11.15;85.74
75794;BME280;64418;47.536;19.074;2023-05-14T01:05:14;100793.59;;;11.20;85.22
75794;BME280;64418;47.536;19.074;2023-05-14T01:08:08;100787.78;;;11.23;85.17
75794;BME280;64418;47.536;19.074;2023-05-14T01:11:06;100792.78;;;11.26;84.13
75794;BME280;64418;47.536;19.074;2023-05-14T01:14:01;100784.88;;;11.25;83.38
75794;BME280;64418;47.536;19.074;2023-05-14T01:16:48;100781.53;;;11.29;83.17
75794;BME280;64418;47.536;19.074;2023-05-14T01:19:39;100777.38;;;11.33;82.96
75794;BME280;64418;47.536;19.074;2023-05-14T01:22:27;100769.91;;;11.35;82.60
75794;BME280;64418;47.536;19.074;2023-05-14T01:25:13;100764.88;;;11.32;82.57
75794;BME280;64418;47.536;19.074;2023-05-14T01:28:04;100771.16;;;11.33;82.58
75794;BME280;64418;47.536;19.074;2023-05-14T01:30:56;100765.91;;;11.31;82.66
75794;BME280;64418;47.536;19.074;2023-05-14T01:33:43;100765.25;;;11.29;83.08
75794;BME280;64418;47.536;19.074;2023-05-14T01:36:30;100757.53;;;11.26;83.68
75794;BME280;64418;47.536;19.074;2023-05-14T01:39:18;100759.03;;;11.29;83.47
75794;BME280;64418;47.536;19.074;2023-05-14T01:42:06;100761.09;;;11.27;83.33
75794;BME280;64418;47.536;19.074;2023-05-14T01:44:52;100753.56;;;11.22;83.69
75794;BME280;64418;47.536;19.074;2023-05-14T01:47:38;100754.81;;;11.20;84.17
75794;BME280;64418;47.536;19.074;2023-05-14T01:50:24;100748.09;;;11.16;84.85
75794;BME280;64418;47.536;19.074;2023-05-14T01:53:10;100740.97;;;11.08;85.54
75794;BME280;64418;47.536;19.074;2023-05-14T01:55:57;100731.81;;;11.09;85.66
75794;BME280;64418;47.536;19.074;2023-05-14T01:58:43;100734.09;;;11.05;85.92
75794;BME280;64418;47.536;19.074;2023-05-14T02:01:29;100725.94;;;10.99;85.84
75794;BME280;64418;47.536;19.074;2023-05-14T02:04:15;100716.13;;;10.98;86.70
75794;BME280;64418;47.536;19.074;2023-05-14T02:07:01;100713.56;;;10.90;87.45
75794;BME280;64418;47.536;19.074;2023-05-14T02:09:47;100701.69;;;10.91;87.49
75794;BME280;64418;47.536;19.074;2023-05-14T02:12:34;100709.81;;;10.91;86.84
75794;BME280;64418;47.536;19.074;2023-05-14T02:15:20;100707.50;;;10.88;87.30
75794;BME280;64418;47.536;19.074;2023-05-14T02:18:06;100702.72;;;10.90;87.12
75794;BME280;64418;47.536;19.074;2023-05-14T02:20:52;100703.34;;;10.92;86.87
75794;BME280;64418;47.536;19.074;2023-05-14T02:23:37;100702.06;;;10.88;87.18
75794;BME280;64418;47.536;19.074;2023-05-14T02:26:23;100701.69;;;10.91;86.75
75794;BME280;64418;47.536;19.074;2023-05-14T02:29:10;100706.28;;;10.90;86.74
75794;BME280;64418;47.536;19.074;2023-05-14T02:31:56;100700.84;;;10.90;86.47
75794;BME280;64418;47.536;19.074;2023-05-14T02:34:42;100704.59;;;10.89;86.48
75794;BME280;64418;47.536;19.074;2023-05-14T02:37:28;100700.00;;;10.90;86.20
75794;BME280;64418;47.536;19.074;2023-05-14T02:40:13;100697.53;;;10.95;85.96
75794;BME280;64418;47.536;19.074;2023-05-14T02:42:59;100700.03;;;10.96;85.75
75794;BME280;64418;47.536;19.074;2023-05-14T02:45:47;100694.84;;;10.95;85.81
75794;BME280;64418;47.536;19.074;2023-05-14T02:48:33;100694.84;;;10.95;85.66
75794;BME280;64418;47.536;19.074;2023-05-14T02:51:19;100697.53;;;10.95;85.60
75794;BME280;64418;47.536;19.074;2023-05-14T02:54:05;100700.88;;;10.97;85.08
75794;BME280;64418;47.536;19.074;2023-05-14T02:56:50;100698.81;;;10.99;85.00
75794;BME280;64418;47.536;19.074;2023-05-14T02:59:36;100705.03;;;10.99;85.01
75794;BME280;64418;47.536;19.074;2023-05-14T03:02:23;100697.13;;;10.98;84.94
75794;BME280;64418;47.536;19.074;2023-05-14T03:05:10;100697.13;;;10.98;84.59
75794;BME280;64418;47.536;19.074;2023-05-14T03:07:57;100695.47;;;10.97;84.61
75794;BME280;64418;47.536;19.074;2023-05-14T03:10:42;100696.72;;;11.01;84.51
75794;BME280;64418;47.536;19.074;2023-05-14T03:13:28;100681.50;;;11.00;84.75
75794;BME280;64418;47.536;19.074;2023-05-14T03:16:14;100678.38;;;11.03;84.30
75794;BME280;64418;47.536;19.074;2023-05-14T03:19:01;100677.94;;;10.99;84.09
75794;BME280;64418;47.536;19.074;2023-05-14T03:21:47;100679.03;;;11.05;83.62
75794;BME280;64418;47.536;19.074;2023-05-14T03:24:33;100655.81;;;10.96;83.58
75794;BME280;64418;47.536;19.074;2023-05-14T03:27:19;100684.47;;;11.11;83.33
75794;BME280;64418;47.536;19.074;2023-05-14T03:30:06;100687.00;;;11.13;82.90
75794;BME280;64418;47.536;19.074;2023-05-14T03:32:52;100685.53;;;11.17;82.57
75794;BME280;64418;47.536;19.074;2023-05-14T03:35:39;100683.44;;;11.19;82.42
75794;BME280;64418;47.536;19.074;2023-05-14T03:38:25;100680.97;;;11.24;81.98
75794;BME280;64418;47.536;19.074;2023-05-14T03:41:11;100686.41;;;11.24;81.75
75794;BME280;64418;47.536;19.074;2023-05-14T03:43:56;100691.00;;;11.30;81.59
75794;BME280;64418;47.536;19.074;2023-05-14T03:46:42;100696.66;;;11.35;81.26
75794;BME280;64418;47.536;19.074;2023-05-14T03:49:28;100691.41;;;11.27;81.31
75794;BME280;64418;47.536;19.074;2023-05-14T03:52:15;100696.00;;;11.33;81.20
75794;BME280;64418;47.536;19.074;2023-05-14T03:55:01;100697.94;;;11.39;81.25
75794;BME280;64418;47.536;19.074;2023-05-14T03:57:47;100695.22;;;11.39;81.08
75794;BME280;64418;47.536;19.074;2023-05-14T04:00:33;100685.16;;;11.33;80.77
75794;BME280;64418;47.536;19.074;2023-05-14T04:03:21;100673.50;;;11.39;80.63
75794;BME280;64418;47.536;19.074;2023-05-14T04:06:07;100674.31;;;11.33;81.16
75794;BME280;64418;47.536;19.074;2023-05-14T04:08:54;100674.75;;;11.37;81.23
75794;BME280;64418;47.536;19.074;2023-05-14T04:11:40;100681.41;;;11.34;81.09
75794;BME280;64418;47.536;19.074;2023-05-14T04:14:26;100682.44;;;11.33;81.01
75794;BME280;64418;47.536;19.074;2023-05-14T04:17:12;100689.19;;;11.44;80.62
75794;BME280;64418;47.536;19.074;2023-05-14T04:19:58;100684.81;;;11.49;80.39
75794;BME280;64418;47.536;19.074;2023-05-14T04:22:43;100672.50;;;11.47;79.42
75794;BME280;64418;47.536;19.074;2023-05-14T04:25:30;100672.91;;;11.50;79.16
75794;BME280;64418;47.536;19.074;2023-05-14T04:28:16;100669.56;;;11.48;79.46
75794;BME280;64418;47.536;19.074;2023-05-14T04:31:02;100668.09;;;11.52;78.71
75794;BME280;64418;47.536;19.074;2023-05-14T04:33:48;100667.72;;;11.55;78.30
75794;BME280;64418;47.536;19.074;2023-05-14T04:36:33;100668.94;;;11.59;77.60
75794;BME280;64418;47.536;19.074;2023-05-14T04:39:19;100657.72;;;11.63;77.94
75794;BME280;64418;47.536;19.074;2023-05-14T04:42:06;100662.28;;;11.69;77.71
75794;BME280;64418;47.536;19.074;2023-05-14T04:44:52;100668.38;;;11.71;77.58
75794;BME280;64418;47.536;19.074;2023-05-14T04:47:38;100668.97;;;11.66;77.93
75794;BME280;64418;47.536;19.074;2023-05-14T04:50:24;100660.63;;;11.61;77.21
75794;BME280;64418;47.536;19.074;2023-05-14T04:53:10;100670.63;;;11.67;76.32
75794;BME280;64418;47.536;19.074;2023-05-14T04:55:56;100679.03;;;11.72;76.34
75794;BME280;64418;47.536;19.074;2023-05-14T04:58:43;100664.00;;;11.76;75.97
75794;BME280;64418;47.536;19.074;2023-05-14T05:01:29;100660.25;;;11.77;75.72
75794;BME280;64418;47.536;19.074;2023-05-14T05:04:14;100666.53;;;11.78;76.18
75794;BME280;64418;47.536;19.074;2023-05-14T05:07:00;100664.84;;;11.77;75.77
75794;BME280;64418;47.536;19.074;2023-05-14T05:09:46;100666.53;;;11.78;75.32
75794;BME280;64418;47.536;19.074;2023-05-14T05:12:32;100662.56;;;11.80;75.30
75794;BME280;64418;47.536;19.074;2023-05-14T05:15:19;100663.16;;;11.76;75.93
75794;BME280;64418;47.536;19.074;2023-05-14T05:18:05;100647.69;;;11.70;76.11
75794;BME280;64418;47.536;19.074;2023-05-14T05:21:06;100651.91;;;11.85;75.47
75794;BME280;64418;47.536;19.074;2023-05-14T05:23:52;100657.13;;;11.93;75.72
75794;BME280;64418;47.536;19.074;2023-05-14T05:26:38;100656.72;;;11.96;75.68
75794;BME280;64418;47.536;19.074;2023-05-14T05:29:23;100646.47;;;11.92;75.18
75794;BME280;64418;47.536;19.074;2023-05-14T05:32:10;100645.22;;;11.88;75.21
75794;BME280;64418;47.536;19.074;2023-05-14T05:34:57;100649.41;;;11.97;74.97
75794;BME280;64418;47.536;19.074;2023-05-14T05:37:42;100655.66;;;11.97;73.81
75794;BME280;64418;47.536;19.074;2023-05-14T05:40:28;100656.72;;;12.03;75.09
75794;BME280;64418;47.536;19.074;2023-05-14T05:43:14;100652.31;;;12.02;75.14
75794;BME280;64418;47.536;19.074;2023-05-14T05:46:03;100643.56;;;12.00;74.89
75794;BME280;64418;47.536;19.074;2023-05-14T05:48:50;100647.94;;;12.01;74.62
75794;BME280;64418;47.536;19.074;2023-05-14T05:51:36;100651.28;;;11.90;74.92
75794;BME280;64418;47.536;19.074;2023-05-14T05:54:22;100652.72;;;11.86;75.45
75794;BME280;64418;47.536;19.074;2023-05-14T05:57:08;100651.06;;;11.91;74.74
75794;BME280;64418;47.536;19.074;2023-05-14T05:59:54;100641.47;;;12.02;74.39
75794;BME280;64418;47.536;19.074;2023-05-14T06:02:40;100656.53;;;12.04;74.77
75794;BME280;64418;47.536;19.074;2023-05-14T06:05:27;100643.16;;;12.03;74.15
75794;BME280;64418;47.536;19.074;2023-05-14T06:08:13;100652.75;;;12.12;73.77
75794;BME280;64418;47.536;19.074;2023-05-14T06:10:59;100649.81;;;12.20;74.07
75794;BME280;64418;47.536;19.074;2023-05-14T06:13:45;100655.47;;;12.19;74.39
75794;BME280;64418;47.536;19.074;2023-05-14T06:16:31;100662.56;;;12.26;75.42
75794;BME280;64418;47.536;19.074;2023-05-14T06:19:16;100665.28;;;12.26;75.18
75794;BME280;64418;47.536;19.074;2023-05-14T06:22:04;100660.47;;;12.35;74.83
75794;BME280;64418;47.536;19.074;2023-05-14T06:24:50;100664.03;;;12.22;74.83
75794;BME280;64418;47.536;19.074;2023-05-14T06:27:36;100660.28;;;12.23;74.86
75794;BME280;64418;47.536;19.074;2023-05-14T06:30:21;100657.13;;;12.26;74.81
75794;BME280;64418;47.536;19.074;2023-05-14T06:33:07;100666.53;;;12.17;76.04
75794;BME280;64418;47.536;19.074;2023-05-14T06:35:53;100668.41;;;12.17;76.33
75794;BME280;64418;47.536;19.074;2023-05-14T06:38:40;100668.41;;;12.23;76.23
75794;BME280;64418;47.536;19.074;2023-05-14T06:41:26;100665.28;;;12.06;76.13
75794;BME280;64418;47.536;19.074;2023-05-14T06:44:11;100666.75;;;12.16;76.67
75794;BME280;64418;47.536;19.074;2023-05-14T06:46:57;100660.69;;;12.07;75.88
75794;BME280;64418;47.536;19.074;2023-05-14T06:49:43;100654.34;;;12.59;79.53
75794;BME280;64418;47.536;19.074;2023-05-14T06:52:29;100644.63;;;12.89;81.80
75794;BME280;64418;47.536;19.074;2023-05-14T06:55:16;100640.03;;;12.90;78.35
75794;BME280;64418;47.536;19.074;2023-05-14T06:58:02;100638.47;;;13.07;79.32
75794;BME280;64418;47.536;19.074;2023-05-14T07:00:48;100635.31;;;13.23;75.66
75794;BME280;64418;47.536;19.074;2023-05-14T07:03:34;100611.56;;;12.99;75.85
75794;BME280;64418;47.536;19.074;2023-05-14T07:06:19;100625.00;;;12.81;76.33
75794;BME280;64418;47.536;19.074;2023-05-14T07:09:05;100627.06;;;12.85;75.86
75794;BME280;64418;47.536;19.074;2023-05-14T07:11:52;100619.53;;;12.94;75.37
75794;BME280;64418;47.536;19.074;2023-05-14T07:14:38;100617.66;;;12.88;75.65
75794;BME280;64418;47.536;19.074;2023-05-14T07:17:24;100615.81;;;12.82;74.84
75794;BME280;64418;47.536;19.074;2023-05-14T07:20:11;100618.72;;;12.87;75.05
75794;BME280;64418;47.536;19.074;2023-05-14T07:22:57;100614.56;;;12.78;75.08
75794;BME280;64418;47.536;19.074;2023-05-14T07:25:42;100611.00;;;12.84;74.88
75794;BME280;64418;47.536;19.074;2023-05-14T07:28:29;100605.28;;;12.98;74.90
75794;BME280;64418;47.536;19.074;2023-05-14T07:31:15;100611.13;;;13.02;74.42
75794;BME280;64418;47.536;19.074;2023-05-14T07:34:01;100612.75;;;13.16;74.35
75794;BME280;64418;47.536;19.074;2023-05-14T07:36:47;100608.38;;;13.46;72.80
75794;BME280;64418;47.536;19.074;2023-05-14T07:39:33;100598.97;;;13.42;73.12
75794;BME280;64418;47.536;19.074;2023-05-14T07:42:19;100604.44;;;13.42;72.82
75794;BME280;64418;47.536;19.074;2023-05-14T07:45:08;100600.41;;;13.52;71.83
75794;BME280;64418;47.536;19.074;2023-05-14T07:47:54;100600.94;;;13.60;72.15
75794;BME280;64418;47.536;19.074;2023-05-14T07:50:39;100598.28;;;13.54;71.88
75794;BME280;64418;47.536;19.074;2023-05-14T07:53:25;100602.03;;;13.84;71.83
75794;BME280;64418;47.536;19.074;2023-05-14T07:56:11;100596.47;;;13.72;71.88
75794;BME280;64418;47.536;19.074;2023-05-14T07:58:56;100586.56;;;14.03;71.66
75794;BME280;64418;47.536;19.074;2023-05-14T08:01:44;100576.84;;;13.88;72.29
75794;BME280;64418;47.536;19.074;2023-05-14T08:04:29;100578.50;;;13.65;71.64
75794;BME280;64418;47.536;19.074;2023-05-14T08:07:15;100578.94;;;13.86;71.90
75794;BME280;64418;47.536;19.074;2023-05-14T08:10:01;100581.56;;;13.99;70.94
75794;BME280;64418;47.536;19.074;2023-05-14T08:12:47;100576.19;;;13.93;71.07
75794;BME280;64418;47.536;19.074;2023-05-14T08:15:33;100562.56;;;13.93;72.19
75794;BME280;64418;47.536;19.074;2023-05-14T08:18:20;100566.97;;;14.37;76.53
75794;BME280;64418;47.536;19.074;2023-05-14T08:21:06;100567.47;;;14.27;72.60
75794;BME280;64418;47.536;19.074;2023-05-14T08:23:51;100559.44;;;14.51;73.70
75794;BME280;64418;47.536;19.074;2023-05-14T08:26:37;100560.00;;;14.16;71.68
75794;BME280;64418;47.536;19.074;2023-05-14T08:29:23;100559.84;;;14.36;74.39
75794;BME280;64418;47.536;19.074;2023-05-14T08:32:09;100548.94;;;14.36;73.96
75794;BME280;64418;47.536;19.074;2023-05-14T08:34:56;100552.47;;;14.55;75.07
75794;BME280;64418;47.536;19.074;2023-05-14T08:37:42;100545.06;;;14.43;73.31
75794;BME280;64418;47.536;19.074;2023-05-14T08:40:27;100543.53;;;14.66;73.63
75794;BME280;64418;47.536;19.074;2023-05-14T08:43:19;100537.91;;;14.24;73.69
75794;BME280;64418;47.536;19.074;2023-05-14T08:46:12;100539.13;;;14.28;73.95
75794;BME280;64418;47.536;19.074;2023-05-14T08:49:04;100527.16;;;13.93;75.49
75794;BME280;64418;47.536;19.074;2023-05-14T08:51:56;100525.84;;;14.38;75.42
75794;BME280;64418;47.536;19.074;2023-05-14T08:54:44;100521.63;;;14.42;74.43
75794;BME280;64418;47.536;19.074;2023-05-14T08:57:31;100513.69;;;14.71;75.05
75794;BME280;64418;47.536;19.074;2023-05-14T09:00:18;100509.97;;;14.29;74.51
75794;BME280;64418;47.536;19.074;2023-05-14T09:03:04;100512.97;;;14.45;73.28
75794;BME280;64418;47.536;19.074;2023-05-14T09:05:51;100514.13;;;14.31;73.09
75794;BME280;64418;47.536;19.074;2023-05-14T09:08:41;100522.00;;;14.03;74.66
75794;BME280;64418;47.536;19.074;2023-05-14T09:11:27;100521.56;;;14.06;75.11
75794;BME280;64418;47.536;19.074;2023-05-14T09:14:14;100522.00;;;14.03;75.05
75794;BME280;64418;47.536;19.074;2023-05-14T09:17:00;100515.88;;;13.65;75.24
75794;BME280;64418;47.536;19.074;2023-05-14T09:19:46;100509.00;;;13.62;76.80
75794;BME280;64418;47.536;19.074;2023-05-14T09:22:33;100510.34;;;13.78;76.46
75794;BME280;64418;47.536;19.074;2023-05-14T09:25:26;100511.50;;;14.07;76.98
75794;BME280;64418;47.536;19.074;2023-05-14T09:28:16;100504.19;;;14.43;75.52
75794;BME280;64418;47.536;19.074;2023-05-14T09:31:02;100509.94;;;14.35;76.96
75794;BME280;64418;47.536;19.074;2023-05-14T09:33:49;100502.41;;;14.13;75.75
75794;BME280;64418;47.536;19.074;2023-05-14T09:36:36;100489.91;;;14.05;76.14
75794;BME280;64418;47.536;19.074;2023-05-14T09:39:22;100490.84;;;13.99;76.61
75794;BME280;64418;47.536;19.074;2023-05-14T09:42:10;100499.47;;;13.96;77.19
75794;BME280;64418;47.536;19.074;2023-05-14T09:44:56;100493.00;;;13.90;77.37
75794;BME280;64418;47.536;19.074;2023-05-14T09:47:42;100491.75;;;14.11;77.92
75794;BME280;64418;47.536;19.074;2023-05-14T09:50:28;100492.50;;;13.82;77.37
75794;BME280;64418;47.536;19.074;2023-05-14T09:53:14;100480.22;;;13.91;77.96
75794;BME280;64418;47.536;19.074;2023-05-14T09:56:00;100478.09;;;13.75;77.51
75794;BME280;64418;47.536;19.074;2023-05-14T09:58:48;100477.56;;;13.66;77.61
75794;BME280;64418;47.536;19.074;2023-05-14T10:01:34;100468.66;;;13.77;78.69
75794;BME280;64418;47.536;19.074;2023-05-14T10:04:21;100482.19;;;13.84;78.28
75794;BME280;64418;47.536;19.074;2023-05-14T10:07:07;100475.50;;;13.62;78.46
75794;BME280;64418;47.536;19.074;2023-05-14T10:10:02;100471.50;;;13.82;78.26
75794;BME280;64418;47.536;19.074;2023-05-14T10:12:51;100463.13;;;13.84;79.24
75794;BME280;64418;47.536;19.074;2023-05-14T10:15:42;100445.81;;;13.96;79.76
75794;BME280;64418;47.536;19.074;2023-05-14T10:18:35;100439.81;;;13.70;79.93
75794;BME280;64418;47.536;19.074;2023-05-14T10:21:25;100427.25;;;13.69;79.54
75794;BME280;64418;47.536;19.074;2023-05-14T10:24:13;100415.31;;;13.70;79.62
75794;BME280;64418;47.536;19.074;2023-05-14T10:27:00;100412.91;;;13.80;79.81
75794;BME280;64418;47.536;19.074;2023-05-14T10:29:51;100397.47;;;13.92;79.47
75794;BME280;64418;47.536;19.074;2023-05-14T10:32:39;100384.28;;;14.07;79.23
75794;BME280;64418;47.536;19.074;2023-05-14T10:35:25;100376.59;;;14.04;80.70
75794;BME280;64418;47.536;19.074;2023-05-14T10:38:14;100385.50;;;14.11;80.01
75794;BME280;64418;47.536;19.074;2023-05-14T10:41:01;100402.44;;;14.13;80.33
75794;BME280;64418;47.536;19.074;2023-05-14T10:43:47;100410.22;;;14.10;80.27
75794;BME280;64418;47.536;19.074;2023-05-14T10:46:34;100410.78;;;14.00;80.24
75794;BME280;64418;47.536;19.074;2023-05-14T10:49:21;100395.25;;;13.82;79.85
75794;BME280;64418;47.536;19.074;2023-05-14T10:52:08;100404.13;;;13.78;81.57
75794;BME280;64418;47.536;19.074;2023-05-14T10:54:54;100393.69;;;13.93;80.11
75794;BME280;64418;47.536;19.074;2023-05-14T10:57:41;100394.56;;;14.05;79.51
75794;BME280;64418;47.536;19.074;2023-05-14T11:00:27;100391.81;;;13.93;80.00
75794;BME280;64418;47.536;19.074;2023-05-14T11:03:13;100391.03;;;13.86;79.41
75794;BME280;64418;47.536;19.074;2023-05-14T11:06:02;100392.69;;;14.06;79.43
75794;BME280;64418;47.536;19.074;2023-05-14T11:08:50;100392.44;;;14.25;79.55
75794;BME280;64418;47.536;19.074;2023-05-14T11:11:35;100402.06;;;14.46;79.99
75794;BME280;64418;47.536;19.074;2023-05-14T11:14:22;100404.84;;;14.39;79.68
75794;BME280;64418;47.536;19.074;2023-05-14T11:17:08;100405.72;;;14.52;78.60
75794;BME280;64418;47.536;19.074;2023-05-14T11:19:54;100394.25;;;14.13;79.64
75794;BME280;64418;47.536;19.074;2023-05-14T11:22:43;100383.50;;;14.18;79.84
75794;BME280;64418;47.536;19.074;2023-05-14T11:25:29;100377.62;;;14.03;81.51
75794;BME280;64418;47.536;19.074;2023-05-14T11:28:14;100374.62;;;13.93;82.05
75794;BME280;64418;47.536;19.074;2023-05-14T11:31:00;100374.47;;;13.88;82.95
75794;BME280;64418;47.536;19.074;2023-05-14T11:33:46;100372.66;;;14.00;82.97
75794;BME280;64418;47.536;19.074;2023-05-14T11:36:35;100373.41;;;13.89;83.02
75794;BME280;64418;47.536;19.074;2023-05-14T11:39:22;100373.91;;;13.97;84.01
75794;BME280;64418;47.536;19.074;2023-05-14T11:42:10;100366.37;;;13.81;84.28
75794;BME280;64418;47.536;19.074;2023-05-14T11:44:56;100369.94;;;14.00;84.43
75794;BME280;64418;47.536;19.074;2023-05-14T11:47:42;100363.38;;;13.89;84.40
75794;BME280;64418;47.536;19.074;2023-05-14T11:50:28;100369.25;;;14.05;84.95
75794;BME280;64418;47.536;19.074;2023-05-14T11:53:17;100367.19;;;14.00;84.38
75794;BME280;64418;47.536;19.074;2023-05-14T11:56:06;100368.25;;;13.99;84.67
75794;BME280;64418;47.536;19.074;2023-05-14T11:58:55;100366.88;;;13.90;84.87
75794;BME280;64418;47.536;19.074;2023-05-14T12:01:43;100358.72;;;13.90;83.20
75794;BME280;64418;47.536;19.074;2023-05-14T12:04:28;100358.91;;;13.77;82.58
75794;BME280;64418;47.536;19.074;2023-05-14T12:07:15;100358.97;;;13.70;83.24
75794;BME280;64418;47.536;19.074;2023-05-14T12:10:03;100349.66;;;13.60;83.11
75794;BME280;64418;47.536;19.074;2023-05-14T12:12:51;100344.06;;;13.55;83.92
75794;BME280;64418;47.536;19.074;2023-05-14T12:15:36;100340.16;;;13.50;83.89
75794;BME280;64418;47.536;19.074;2023-05-14T12:18:24;100330.12;;;13.26;85.58
75794;BME280;64418;47.536;19.074;2023-05-14T12:21:10;100322.13;;;13.31;85.16
75794;BME280;64418;47.536;19.074;2023-05-14T12:23:57;100323.81;;;13.32;85.75
75794;BME280;64418;47.536;19.074;2023-05-14T12:26:43;100319.53;;;13.18;86.98
75794;BME280;64418;47.536;19.074;2023-05-14T12:29:34;100312.69;;;13.16;86.44
75794;BME280;64418;47.536;19.074;2023-05-14T12:32:20;100311.47;;;13.12;87.60
75794;BME280;64418;47.536;19.074;2023-05-14T12:35:06;100314.28;;;13.23;87.49
75794;BME280;64418;47.536;19.074;2023-05-14T12:37:52;100310.22;;;13.08;87.38
75794;BME280;64418;47.536;19.074;2023-05-14T12:40:37;100303.62;;;12.97;88.70
75794;BME280;64418;47.536;19.074;2023-05-14T12:43:23;100306.50;;;13.02;88.66
75794;BME280;64418;47.536;19.074;2023-05-14T12:46:11;100305.28;;;12.98;88.91
75794;BME280;64418;47.536;19.074;2023-05-14T12:48:59;100305.75;;;12.95;90.30
75794;BME280;64418;47.536;19.074;2023-05-14T12:51:45;100302.22;;;12.88;90.07
75794;BME280;64418;47.536;19.074;2023-05-14T12:54:31;100316.00;;;12.93;90.38
75794;BME280;64418;47.536;19.074;2023-05-14T12:57:17;100298.25;;;12.90;91.05
75794;BME280;64418;47.536;19.074;2023-05-14T13:00:04;100294.78;;;13.01;91.05
75794;BME280;64418;47.536;19.074;2023-05-14T13:02:52;100290.66;;;12.99;91.59
75794;BME280;64418;47.536;19.074;2023-05-14T13:05:37;100283.16;;;12.94;92.49
75794;BME280;64418;47.536;19.074;2023-05-14T13:08:24;100271.56;;;12.81;93.24
75794;BME280;64418;47.536;19.074;2023-05-14T13:11:09;100262.97;;;12.84;93.01
75794;BME280;64418;47.536;19.074;2023-05-14T13:13:55;100260.75;;;12.74;94.18
75794;BME280;64418;47.536;19.074;2023-05-14T13:16:41;100263.03;;;12.77;94.16
75794;BME280;64418;47.536;19.074;2023-05-14T13:19:28;100270.31;;;12.83;93.68
75794;BME280;64418;47.536;19.074;2023-05-14T13:22:14;100259.16;;;12.67;94.05
75794;BME280;64418;47.536;19.074;2023-05-14T13:25:00;100263.25;;;12.76;94.31
75794;BME280;64418;47.536;19.074;2023-05-14T13:27:45;100247.06;;;12.63;95.16
75794;BME280;64418;47.536;19.074;2023-05-14T13:30:31;100247.81;;;12.70;95.96
75794;BME280;64418;47.536;19.074;2023-05-14T13:33:17;100239.06;;;12.68;95.11
75794;BME280;64418;47.536;19.074;2023-05-14T13:36:05;100233.19;;;12.71;95.53
75794;BME280;64418;47.536;19.074;2023-05-14T13:38:51;100238.16;;;12.74;95.37
75794;BME280;64418;47.536;19.074;2023-05-14T13:41:36;100226.84;;;12.77;95.01
75794;BME280;64418;47.536;19.074;2023-05-14T13:44:22;100221.28;;;12.72;95.75
75794;BME280;64418;47.536;19.074;2023-05-14T13:47:08;100216.87;;;12.71;94.75
75794;BME280;64418;47.536;19.074;2023-05-14T13:49:54;100219.13;;;12.74;94.99
75794;BME280;64418;47.536;19.074;2023-05-14T13:52:42;100205.25;;;12.64;95.66
75794;BME280;64418;47.536;19.074;2023-05-14T13:55:28;100201.16;;;12.73;95.49
75794;BME280;64418;47.536;19.074;2023-05-14T13:58:14;100203.28;;;12.71;95.85
75794;BME280;64418;47.536;19.074;2023-05-14T14:01:00;100199.06;;;12.75;96.03
75794;BME280;64418;47.536;19.074;2023-05-14T14:03:45;100196.34;;;12.75;96.07
75794;BME280;64418;47.536;19.074;2023-05-14T14:06:31;100191.38;;;12.72;96.35
75794;BME280;64418;47.536;19.074;2023-05-14T14:09:19;100190.16;;;12.68;96.19
75794;BME280;64418;47.536;19.074;2023-05-14T14:12:05;100198.41;;;12.79;96.80
75794;BME280;64418;47.536;19.074;2023-05-14T14:14:51;100187.19;;;12.69;96.88
75794;BME280;64418;47.536;19.074;2023-05-14T14:17:37;100183.22;;;12.72;97.27
75794;BME280;64418;47.536;19.074;2023-05-14T14:20:23;100187.44;;;12.68;98.31